Time;durP1;ratioP1;P1;durP2;ratioP2;P2;SDS_P1;SDS_P2;PMS_P1;PMS_P2;Temp;Humidity;BMP_temperature;BMP_pressure;BME280_temperature;BME280_humidity;BME280_pressure;Samples;Min_cycle;Max_cycle;Signal;HPM_P1;HPM_P2
2022/04/11 00:01:19;;;;;;;15.70;9.88;;;;;;;5.51;62.91;101863.06;5075632;28;20028;-60
2022/04/11 00:03:45;;;;;;;16.05;10.55;;;;;;;5.48;62.87;101864.94;5075224;28;20539;-60
2022/04/11 00:06:10;;;;;;;15.07;9.98;;;;;;;5.49;62.82;101851.72;5075268;28;20028;-60
2022/04/11 00:08:35;;;;;;;13.55;9.52;;;;;;;5.50;63.14;101855.22;5075815;28;20032;-60
2022/04/11 00:11:01;;;;;;;17.88;10.77;;;;;;;5.48;62.56;101855.28;5075111;28;20064;-60
2022/04/11 00:13:26;;;;;;;19.20;10.80;;;;;;;5.47;62.39;101848.28;5074652;28;20073;-60
2022/04/11 00:15:51;;;;;;;16.58;10.35;;;;;;;5.45;61.91;101846.66;5075164;28;20025;-59
2022/04/11 00:18:16;;;;;;;20.35;10.02;;;;;;;5.43;62.06;101848.47;5075050;28;20093;-60
2022/04/11 00:20:42;;;;;;;18.45;10.85;;;;;;;5.45;63.24;101847.50;5075088;28;20016;-60
2022/04/11 00:23:07;;;;;;;24.25;11.75;;;;;;;5.45;62.02;101849.28;5074999;28;20370;-60
2022/04/11 00:25:33;;;;;;;25.13;11.68;;;;;;;5.43;61.47;101844.06;5075069;28;20433;-60
2022/04/11 00:27:58;;;;;;;24.58;11.57;;;;;;;5.44;61.24;101847.56;5075691;28;20017;-60
2022/04/11 00:30:23;;;;;;;25.35;11.48;;;;;;;5.45;61.59;101839.59;5075022;28;20020;-60
2022/04/11 00:32:48;;;;;;;27.90;11.05;;;;;;;5.44;60.92;101832.59;5075082;28;20032;-60
2022/04/11 00:35:14;;;;;;;29.25;13.10;;;;;;;5.45;60.18;101841.38;5075017;28;20036;-60
2022/04/11 00:37:40;;;;;;;33.45;13.10;;;;;;;5.43;60.23;101830.03;5074632;28;20032;-60
2022/04/11 00:40:07;;;;;;;33.97;11.77;;;;;;;5.43;59.61;101832.66;5074831;28;20025;-60
2022/04/11 00:42:33;;;;;;;33.90;12.75;;;;;;;5.42;60.17;101825.69;5074580;28;20040;-60
2022/04/11 00:45:03;;;;;;;32.83;12.02;;;;;;;5.42;59.37;101825.69;5074830;28;20029;-59
2022/04/11 00:47:29;;;;;;;42.05;13.50;;;;;;;5.42;59.53;101821.28;5074581;28;20021;-60
2022/04/11 00:50:06;;;;;;;34.42;12.65;;;;;;;5.41;59.18;101819.53;5074559;28;20383;-60
2022/04/11 00:52:35;;;;;;;28.40;12.20;;;;;;;5.38;59.30;101811.78;5074786;28;20122;-59
2022/04/11 00:55:01;;;;;;;34.30;10.93;;;;;;;5.43;58.58;101811.56;5074338;28;20028;-59
2022/04/11 00:57:27;;;;;;;23.80;11.32;;;;;;;5.42;58.98;101808.09;5092869;28;20070;-60
2022/04/11 00:59:53;;;;;;;24.38;10.45;;;;;;;5.44;58.26;101808.88;5094442;28;20047;-60
2022/04/11 01:02:18;;;;;;;25.45;11.48;;;;;;;5.46;58.28;101804.44;5094351;28;20470;-59
2022/04/11 01:04:44;;;;;;;27.70;11.20;;;;;;;5.46;58.43;101807.06;5085779;28;20032;-59
2022/04/11 01:07:09;;;;;;;24.98;11.38;;;;;;;5.46;58.39;101808.81;5074247;28;20029;-59
2022/04/11 01:09:35;;;;;;;25.13;10.75;;;;;;;5.47;58.17;101807.91;5074181;28;20393;-60
2022/04/11 01:12:02;;;;;;;22.05;10.70;;;;;;;5.47;58.23;101805.28;5074045;28;20032;-60
2022/04/11 01:14:27;;;;;;;26.38;10.45;;;;;;;5.46;58.21;101801.81;5073798;28;20123;-59
2022/04/11 01:16:53;;;;;;;21.80;10.10;;;;;;;5.46;58.20;101798.28;5073838;28;20052;-59
2022/04/11 01:19:19;;;;;;;21.65;9.88;;;;;;;5.48;57.55;101799.97;5074297;28;20024;-60
2022/04/11 01:21:46;;;;;;;21.17;10.00;;;;;;;5.49;58.06;101795.53;5074377;28;20028;-60
2022/04/11 01:24:11;;;;;;;18.48;9.63;;;;;;;5.50;57.98;101797.25;5072748;28;20032;-60
2022/04/11 01:26:37;;;;;;;18.15;10.25;;;;;;;5.48;58.58;101791.16;5073482;28;20063;-60
2022/04/11 01:29:04;;;;;;;20.45;10.15;;;;;;;5.50;58.14;101799.91;5073839;28;20028;-60
2022/04/11 01:31:30;;;;;;;25.60;10.25;;;;;;;5.48;58.61;101797.31;5074479;28;20058;-60
2022/04/11 01:33:55;;;;;;;20.23;9.60;;;;;;;5.49;59.29;101799.03;5073390;28;20487;-60
2022/04/11 01:36:20;;;;;;;20.95;10.50;;;;;;;5.51;59.27;101806.88;5073695;28;20068;-60
2022/04/11 01:38:46;;;;;;;22.13;11.20;;;;;;;5.50;59.65;101798.13;5073494;28;20031;-60
2022/04/11 01:41:11;;;;;;;21.63;10.52;;;;;;;5.51;59.98;101797.19;5073386;28;20116;-60
2022/04/11 01:43:36;;;;;;;27.73;10.93;;;;;;;5.52;60.39;101795.41;5073301;28;20037;-60
2022/04/11 01:46:01;;;;;;;28.13;12.15;;;;;;;5.51;60.88;101804.22;5073296;28;20017;-60
2022/04/11 01:48:27;;;;;;;22.50;10.70;;;;;;;5.49;61.02;101804.28;5073403;28;20032;-60
2022/04/11 01:50:52;;;;;;;30.52;10.90;;;;;;;5.46;61.45;101801.81;5073263;28;20043;-60
2022/04/11 01:53:19;;;;;;;29.48;11.30;;;;;;;5.45;61.38;101791.31;5073741;28;20490;-60
2022/04/11 01:55:45;;;;;;;22.35;11.68;;;;;;;5.46;62.08;101799.16;5083971;28;20036;-60
2022/04/11 01:58:11;;;;;;;21.48;11.23;;;;;;;5.44;61.91;101798.34;5093235;28;20544;-60
2022/04/11 02:00:37;;;;;;;23.23;11.00;;;;;;;5.45;62.23;101794.81;5093097;28;20518;-60
2022/04/11 02:03:07;;;;;;;22.45;11.73;;;;;;;5.42;61.92;101789.66;5093126;28;20032;-60
2022/04/11 02:05:34;;;;;;;21.25;10.93;;;;;;;5.40;62.68;101785.38;5079673;28;20120;-60
2022/04/11 02:08:00;;;;;;;22.08;11.15;;;;;;;5.40;62.46;101785.38;5072913;28;20025;-60
2022/04/11 02:10:26;;;;;;;27.33;11.77;;;;;;;5.38;62.48;101788.06;5073090;28;20031;-59
2022/04/11 02:12:54;;;;;;;17.35;10.63;;;;;;;5.36;63.11;101782.88;5073390;28;20394;-60
2022/04/11 02:15:20;;;;;;;20.15;11.23;;;;;;;5.36;63.09;101782.88;5072795;28;20032;-60
2022/04/11 02:17:50;;;;;;;19.38;10.95;;;;;;;5.34;62.34;101782.03;5072782;28;20097;-60
2022/04/11 02:20:15;;;;;;;15.25;9.82;;;;;;;5.34;62.19;101786.47;5073084;28;20025;-59
2022/04/11 02:22:47;;;;;;;19.98;10.23;;;;;;;5.29;62.46;101789.28;5072755;28;20044;-60
2022/04/11 02:25:13;;;;;;;15.48;10.57;;;;;;;5.29;62.89;101791.06;5076895;28;20205;-59
2022/04/11 02:27:38;;;;;;;15.93;9.90;;;;;;;5.25;62.51;101795.59;5090447;28;20122;-59
2022/04/11 02:30:05;;;;;;;18.15;10.18;;;;;;;5.22;62.49;101786.97;5072779;28;20036;-60
2022/04/11 02:32:31;;;;;;;17.92;10.57;;;;;;;5.22;62.44;101792.22;5072628;28;20028;-60
2022/04/11 02:34:56;;;;;;;16.98;9.95;;;;;;;5.17;62.87;101790.59;5072364;28;20115;-60
2022/04/11 02:37:21;;;;;;;16.15;10.35;;;;;;;5.14;63.33;101793.34;5072806;28;20047;-60
2022/04/11 02:39:46;;;;;;;18.10;11.25;;;;;;;5.10;63.67;101797.03;5072722;28;20052;-59
2022/04/11 02:42:26;;;;;;;18.35;10.48;;;;;;;5.06;63.80;101791.94;5072852;28;20107;-60
2022/04/11 02:44:51;;;;;;;;;;;;;;;5.14;61.81;101784.59;5073760;28;20036;-60
2022/04/11 02:47:17;;;;;;;16.63;10.80;;;;;;;5.02;63.70;101782.47;5072663;28;20362;-60
2022/04/11 02:49:42;;;;;;;18.95;10.77;;;;;;;5.01;64.52;101789.47;5062605;28;20538;-59
2022/04/11 02:52:07;;;;;;;14.65;10.70;;;;;;;4.99;64.63;101792.16;5072547;28;20078;-59
2022/04/11 02:54:33;;;;;;;18.95;11.80;;;;;;;4.93;64.55;101786.28;5072497;28;20025;-59
2022/04/11 02:56:58;;;;;;;20.40;11.45;;;;;;;4.88;64.38;101790.84;5073027;28;20139;-60
2022/04/11 02:59:23;;;;;;;15.32;11.35;;;;;;;4.84;64.61;101784.84;5072930;28;20032;-59
2022/04/11 03:01:49;;;;;;;16.92;10.68;;;;;;;4.78;65.19;101780.69;5072446;28;20032;-59
2022/04/11 03:04:16;;;;;;;16.25;10.85;;;;;;;4.78;65.34;101782.44;5072164;28;20033;-60
2022/04/11 03:06:41;;;;;;;17.33;10.88;;;;;;;4.75;65.62;101782.59;5072608;28;20029;-60
2022/04/11 03:09:08;;;;;;;18.52;11.05;;;;;;;4.70;65.92;101781.91;5072433;28;20025;-59
2022/04/11 03:11:33;;;;;;;15.07;10.75;;;;;;;4.66;65.26;101780.28;5070473;28;20393;-59
2022/04/11 03:13:59;;;;;;;17.90;10.85;;;;;;;4.62;65.35;101776.91;5069843;28;20035;-60
2022/04/11 03:16:24;;;;;;;15.57;10.73;;;;;;;4.56;65.73;101778.00;5070485;28;20029;-60
2022/04/11 03:18:49;;;;;;;14.90;10.30;;;;;;;4.49;65.43;101770.38;5070923;28;20078;-60
2022/04/11 03:21:15;;;;;;;12.95;10.48;;;;;;;4.51;65.74;101777.28;5070933;28;20025;-59
2022/04/11 03:23:40;;;;;;;15.32;10.63;;;;;;;4.47;66.27;101775.69;5070479;28;20394;-59
2022/04/11 03:26:05;;;;;;;12.25;10.35;;;;;;;4.44;66.08;101776.66;5070897;28;20123;-60
2022/04/11 03:28:30;;;;;;;17.30;11.07;;;;;;;4.42;65.83;101777.63;5070979;28;20082;-60
2022/04/11 03:30:55;;;;;;;15.77;9.82;;;;;;;4.37;65.46;101775.16;5072673;28;20455;-60
2022/04/11 03:33:21;;;;;;;12.80;10.30;;;;;;;4.36;65.51;101778.69;5072353;28;20028;-59
2022/04/11 03:35:46;;;;;;;14.57;10.38;;;;;;;4.32;64.98;101776.25;5053632;28;20098;-59
2022/04/11 03:38:11;;;;;;;14.43;10.20;;;;;;;4.30;66.29;101778.94;5072723;28;20041;-60
2022/04/11 03:40:37;;;;;;;11.40;10.27;;;;;;;4.24;66.01;101777.34;5072048;28;20467;-59
2022/04/11 03:43:03;;;;;;;13.35;10.40;;;;;;;4.22;66.64;101781.81;5072299;28;20029;-60
2022/04/11 03:45:28;;;;;;;14.10;11.00;;;;;;;4.17;66.96;101783.75;5072371;28;20044;-59
2022/04/11 03:47:53;;;;;;;15.55;10.85;;;;;;;4.12;67.84;101784.84;5074870;28;20036;-59
2022/04/11 03:50:18;;;;;;;14.05;11.05;;;;;;;4.11;67.46;101788.34;5075740;28;20028;-60
2022/04/11 03:52:44;;;;;;;13.85;11.00;;;;;;;4.06;67.39;101780.63;5076210;28;20029;-59
2022/04/11 03:55:09;;;;;;;14.23;11.25;;;;;;;4.01;67.51;101786.06;5075469;28;20036;-60
2022/04/11 03:57:34;;;;;;;12.63;10.85;;;;;;;4.00;67.27;101788.75;5075407;28;20082;-60
2022/04/11 04:00:00;;;;;;;12.13;10.75;;;;;;;3.96;67.62;101785.34;5075624;28;20074;-60
2022/04/11 04:02:25;;;;;;;13.90;11.20;;;;;;;3.91;68.29;101782.00;5075868;28;20024;-59
2022/04/11 04:04:50;;;;;;;14.50;11.05;;;;;;;3.87;67.51;101778.63;5075835;28;20039;-59
2022/04/11 04:07:15;;;;;;;13.15;10.63;;;;;;;3.85;67.12;101779.59;5075505;28;20017;-59
2022/04/11 04:09:40;;;;;;;14.18;10.77;;;;;;;3.82;67.85;101779.69;5075770;28;20024;-59
2022/04/11 04:12:06;;;;;;;16.05;11.43;;;;;;;3.79;67.41;101774.53;5075255;28;20035;-59
2022/04/11 04:14:32;;;;;;;13.27;11.30;;;;;;;3.75;68.07;101776.41;5075722;28;20047;-59
2022/04/11 04:16:57;;;;;;;13.23;11.75;;;;;;;3.72;68.18;101773.88;5075272;28;20487;-59
2022/04/11 04:19:22;;;;;;;14.00;11.45;;;;;;;3.68;68.40;101777.50;5075034;28;20029;-59
2022/04/11 04:21:49;;;;;;;13.85;11.65;;;;;;;3.64;68.39;101775.91;5075128;28;20481;-59
2022/04/11 04:24:14;;;;;;;14.88;12.10;;;;;;;3.59;68.04;101768.16;5075557;28;20043;-59
2022/04/11 04:26:39;;;;;;;15.20;12.23;;;;;;;3.58;68.00;101773.47;5075355;28;20502;-59
2022/04/11 04:29:05;;;;;;;13.80;11.30;;;;;;;3.53;68.33;101768.38;5075138;28;20021;-59
2022/04/11 04:31:30;;;;;;;13.43;11.73;;;;;;;3.51;68.20;101768.44;5075164;28;20035;-60
2022/04/11 04:33:55;;;;;;;13.85;11.65;;;;;;;3.48;68.51;101765.91;5075161;28;20500;-59
2022/04/11 04:36:20;;;;;;;14.20;12.43;;;;;;;3.46;68.86;101767.69;5074764;28;20029;-59
2022/04/11 04:38:46;;;;;;;14.57;11.95;;;;;;;3.44;68.57;101764.25;5075160;28;20044;-59
2022/04/11 04:41:11;;;;;;;14.32;12.88;;;;;;;3.37;69.00;101757.50;5074396;28;20038;-59
2022/04/11 04:43:36;;;;;;;13.98;12.40;;;;;;;3.41;68.52;101768.75;5074712;28;20032;-60
2022/04/11 04:46:02;;;;;;;15.60;13.02;;;;;;;3.39;68.61;101767.97;5074380;28;20035;-59
2022/04/11 04:48:27;;;;;;;13.95;11.75;;;;;;;3.38;68.82;101766.22;5074186;28;20039;-59
2022/04/11 04:50:54;;;;;;;14.30;12.05;;;;;;;3.32;68.65;101760.25;5073688;28;20033;-59
2022/04/11 04:53:19;;;;;;;16.48;11.65;;;;;;;3.32;68.68;101762.03;5074460;28;20115;-60
2022/04/11 04:55:44;;;;;;;13.55;12.13;;;;;;;3.30;69.63;101762.09;5074227;28;20165;-59
2022/04/11 04:58:09;;;;;;;15.18;12.23;;;;;;;3.28;68.67;101763.03;5074231;28;20029;-60
2022/04/11 05:00:35;;;;;;;17.20;11.88;;;;;;;3.23;68.89;101762.31;5074336;28;20035;-59
2022/04/11 05:03:00;;;;;;;15.10;12.38;;;;;;;3.24;69.44;101762.28;5074703;28;20028;-60
2022/04/11 05:05:25;;;;;;;16.35;12.05;;;;;;;3.23;69.31;101759.69;5074396;28;20032;-59
2022/04/11 05:07:50;;;;;;;15.25;12.93;;;;;;;3.21;69.75;101762.34;5074630;28;20020;-60
2022/04/11 05:10:16;;;;;;;15.43;12.13;;;;;;;3.20;69.54;101746.66;5074279;28;20024;-59
2022/04/11 05:12:43;;;;;;;16.17;12.40;;;;;;;3.17;69.11;101755.50;5074628;28;20087;-59
2022/04/11 05:15:09;;;;;;;15.77;12.52;;;;;;;3.17;69.08;101747.63;5074464;28;20025;-59
2022/04/11 05:17:34;;;;;;;13.38;12.00;;;;;;;3.17;69.67;101754.66;5074634;28;20035;-59
2022/04/11 05:20:00;;;;;;;16.42;12.40;;;;;;;3.18;69.86;101751.97;5074113;28;20025;-59
2022/04/11 05:22:25;;;;;;;14.90;12.57;;;;;;;3.18;69.64;101751.97;5074269;28;20028;-59
2022/04/11 05:24:50;;;;;;;14.80;11.95;;;;;;;3.15;69.31;101750.28;5074422;28;20020;-59
2022/04/11 05:27:15;;;;;;;14.75;12.25;;;;;;;3.17;70.10;101750.25;5073869;28;20045;-59
2022/04/11 05:29:41;;;;;;;16.52;12.50;;;;;;;3.17;70.00;101747.63;5073749;28;20043;-60
2022/04/11 05:32:06;;;;;;;16.35;12.35;;;;;;;3.20;70.09;101744.03;5074165;28;20044;-59
2022/04/11 05:34:31;;;;;;;13.55;11.65;;;;;;;3.20;69.87;101739.66;5073556;28;20032;-59
2022/04/11 05:36:57;;;;;;;16.23;12.30;;;;;;;3.22;69.94;101750.97;5073933;28;20096;-59
2022/04/11 05:39:22;;;;;;;16.50;12.38;;;;;;;3.23;69.93;101746.56;5073868;28;20356;-59
2022/04/11 05:41:47;;;;;;;20.27;12.32;;;;;;;3.25;70.07;101750.03;5074352;28;20032;-59
2022/04/11 05:44:12;;;;;;;19.05;12.65;;;;;;;3.30;69.91;101750.72;5073563;28;20032;-59
2022/04/11 05:46:38;;;;;;;31.45;14.80;;;;;;;3.33;69.91;101751.50;5073690;28;20543;-59
2022/04/11 05:49:03;;;;;;;21.85;13.27;;;;;;;3.36;69.99;101753.13;5073534;28;20031;-60
2022/04/11 05:51:28;;;;;;;15.55;12.30;;;;;;;3.39;69.68;101747.78;5079918;28;20016;-59
2022/04/11 05:53:54;;;;;;;17.73;11.82;;;;;;;3.45;70.02;101752.88;5093376;28;20070;-59
2022/04/11 05:56:19;;;;;;;16.75;11.55;;;;;;;3.49;69.79;101751.84;5093674;28;20161;-59
2022/04/11 05:58:44;;;;;;;14.90;11.95;;;;;;;3.55;69.65;101757.78;5093616;28;20034;-60
2022/04/11 06:01:09;;;;;;;14.50;11.85;;;;;;;3.60;69.77;101742.78;5092516;28;20028;-59
2022/04/11 06:03:38;;;;;;;19.23;11.75;;;;;;;3.66;69.43;101740.81;5114006;28;20081;-59
2022/04/11 06:06:04;;;;;;;13.65;10.90;;;;;;;3.74;69.34;101737.06;5112842;28;20473;-59
2022/04/11 06:08:29;;;;;;;13.45;10.98;;;;;;;3.79;68.83;101746.47;5113759;28;20111;-59
2022/04/11 06:10:54;;;;;;;17.38;11.43;;;;;;;3.85;68.89;101742.81;5091942;28;20116;-59
2022/04/11 06:13:20;;;;;;;15.25;11.35;;;;;;;3.93;68.68;101746.03;5090850;28;20028;-60
2022/04/11 06:15:45;;;;;;;15.75;11.10;;;;;;;4.01;68.42;101746.63;5093228;28;20421;-61
2022/04/11 06:18:10;;;;;;;14.85;10.48;;;;;;;4.07;68.33;101749.03;5093687;28;20024;-60
2022/04/11 06:20:36;;;;;;;13.82;10.95;;;;;;;4.16;68.00;101742.56;5075352;28;20542;-60
2022/04/11 06:23:02;;;;;;;12.77;10.30;;;;;;;4.26;67.59;101744.00;5072775;28;20032;-60
2022/04/11 06:25:28;;;;;;;15.18;10.60;;;;;;;4.36;67.34;101747.13;5072749;28;20418;-60
2022/04/11 06:27:53;;;;;;;15.90;10.73;;;;;;;4.44;66.84;101745.06;5074140;28;20029;-60
2022/04/11 06:30:18;;;;;;;13.65;9.82;;;;;;;4.55;66.62;101743.84;5088776;28;20048;-60
2022/04/11 06:32:43;;;;;;;17.05;10.30;;;;;;;4.66;66.67;101735.53;5091292;28;20035;-61
2022/04/11 06:35:09;;;;;;;14.20;10.25;;;;;;;4.74;66.42;101739.59;5090933;28;20051;-61
2022/04/11 06:37:34;;;;;;;14.65;10.38;;;;;;;4.81;66.23;101742.84;5090445;28;20047;-60
2022/04/11 06:40:01;;;;;;;14.50;9.80;;;;;;;4.91;65.56;101746.88;5091246;28;20063;-60
2022/04/11 06:42:26;;;;;;;13.18;9.82;;;;;;;5.00;64.93;101746.50;5092492;28;20032;-61
2022/04/11 06:44:51;;;;;;;12.93;9.75;;;;;;;5.10;64.88;101751.44;5087407;28;20024;-61
2022/04/11 06:47:18;;;;;;;13.68;9.45;;;;;;;5.19;64.36;101745.78;5090950;28;20027;-60
2022/04/11 06:49:44;;;;;;;12.88;9.07;;;;;;;5.28;63.97;101740.16;5086185;28;20583;-60
2022/04/11 06:52:09;;;;;;;13.82;9.48;;;;;;;5.38;63.99;101744.13;5090896;28;20040;-60
2022/04/11 06:54:34;;;;;;;9.52;8.52;;;;;;;5.51;63.93;101751.53;5091620;28;20035;-60
2022/04/11 06:57:00;;;;;;;12.45;8.82;;;;;;;5.63;63.63;101752.81;5089509;28;20040;-60
2022/04/11 06:59:25;;;;;;;13.80;9.18;;;;;;;5.74;63.06;101750.59;5091451;28;20043;-60
2022/04/11 07:01:52;;;;;;;14.05;9.63;;;;;;;5.91;62.81;101755.13;5091359;28;20048;-60
2022/04/11 07:04:20;;;;;;;11.82;8.82;;;;;;;6.07;62.20;101752.75;5092027;28;20024;-61
2022/04/11 07:06:46;;;;;;;15.38;9.18;;;;;;;6.22;61.44;101746.81;5087887;28;20059;-60
2022/04/11 07:09:12;;;;;;;12.10;9.13;;;;;;;6.42;61.28;101750.34;5088338;28;20024;-61
2022/04/11 07:11:37;;;;;;;12.05;8.25;;;;;;;6.63;60.86;101759.09;5090901;28;20036;-62
2022/04/11 07:14:03;;;;;;;16.15;8.70;;;;;;;6.87;60.56;101750.97;5091779;28;20032;-61
2022/04/11 07:16:28;;;;;;;14.57;7.80;;;;;;;7.11;59.78;101747.19;5091885;28;20063;-61
2022/04/11 07:18:53;;;;;;;13.18;7.68;;;;;;;7.35;58.68;101744.28;5086647;28;20154;-62
2022/04/11 07:21:19;;;;;;;13.40;7.88;;;;;;;7.63;57.83;101737.63;5073208;28;20047;-61
2022/04/11 07:23:44;;;;;;;14.77;7.63;;;;;;;7.89;57.85;101729.25;5076303;28;20032;-61
2022/04/11 07:26:09;;;;;;;10.52;6.82;;;;;;;8.13;56.00;101719.19;5076035;28;20133;-61
2022/04/11 07:28:35;;;;;;;11.63;6.43;;;;;;;8.42;55.23;101721.22;5092949;28;20032;-61
2022/04/11 07:31:00;;;;;;;13.15;5.85;;;;;;;8.67;53.27;101715.47;5114198;28;20044;-61
2022/04/11 07:33:26;;;;;;;12.90;5.55;;;;;;;8.94;52.77;101725.50;5090048;28;20060;-61
2022/04/11 07:35:51;;;;;;;13.13;5.90;;;;;;;9.25;51.92;101711.38;5081868;28;20118;-62
2022/04/11 07:38:17;;;;;;;8.25;5.07;;;;;;;9.52;51.96;101711.56;5096049;28;20027;-62
2022/04/11 07:40:42;;;;;;;8.70;5.25;;;;;;;9.85;51.31;101715.00;5065129;28;20036;-62
2022/04/11 07:43:07;;;;;;;7.78;4.80;;;;;;;10.10;50.27;101707.25;5076163;28;20051;-62
2022/04/11 07:45:32;;;;;;;9.00;4.32;;;;;;;10.36;48.60;101708.34;5076989;28;20032;-62
2022/04/11 07:47:58;;;;;;;8.45;4.22;;;;;;;10.60;48.01;101707.75;5094069;28;20481;-61
2022/04/11 07:50:23;;;;;;;7.45;4.38;;;;;;;10.84;48.00;101699.19;5091751;28;20031;-61
2022/04/11 07:52:49;;;;;;;10.02;4.65;;;;;;;11.15;46.87;101697.22;5081820;28;20050;-61
2022/04/11 07:55:15;;;;;;;6.63;4.78;;;;;;;11.38;46.25;101698.34;5091967;28;20102;-61
2022/04/11 07:57:41;;;;;;;7.10;4.30;;;;;;;11.65;44.90;101690.31;5096223;28;20095;-62
2022/04/11 08:00:07;;;;;;;9.18;4.47;;;;;;;11.84;44.27;101687.28;5096524;28;20104;-62
2022/04/11 08:02:33;;;;;;;6.40;3.72;;;;;;;12.08;44.30;101687.41;5078224;28;20032;-62
2022/04/11 08:05:05;;;;;;;10.75;4.63;;;;;;;12.32;43.98;101679.53;5076925;28;20093;-62
2022/04/11 08:07:32;;;;;;;5.90;4.07;;;;;;;12.64;43.71;101679.03;5076076;28;20020;-64
2022/04/11 08:09:57;;;;;;;8.68;5.00;;;;;;;12.75;42.38;101676.44;5075840;28;20024;-62
2022/04/11 08:12:23;;;;;;;8.77;4.38;;;;;;;12.92;41.84;101677.00;5075703;28;20028;-62
2022/04/11 08:14:48;;;;;;;10.83;4.77;;;;;;;13.00;41.27;101661.31;5078655;28;20028;-62
2022/04/11 08:17:13;;;;;;;8.50;3.90;;;;;;;13.23;41.67;101670.25;5072939;28;20340;-61
2022/04/11 08:19:39;;;;;;;5.80;4.15;;;;;;;13.22;40.83;101665.91;5093081;28;20266;-61
2022/04/11 08:22:05;;;;;;;8.63;4.32;;;;;;;13.27;40.97;101666.41;5093509;28;20020;-60
2022/04/11 08:24:31;;;;;;;6.15;4.20;;;;;;;13.38;40.90;101660.28;5094924;28;20069;-62
2022/04/11 08:26:58;;;;;;;7.65;3.83;;;;;;;13.55;40.45;101660.84;5086723;28;20048;-61
2022/04/11 08:29:24;;;;;;;6.88;4.13;;;;;;;13.65;39.91;101661.81;5078137;28;20020;-61
2022/04/11 08:31:49;;;;;;;9.32;4.15;;;;;;;13.81;39.61;101649.00;5094940;28;20082;-61
2022/04/11 08:34:14;;;;;;;7.10;4.22;;;;;;;14.02;39.12;101651.84;5093151;28;20024;-62
2022/04/11 08:36:39;;;;;;;7.30;4.10;;;;;;;14.22;38.16;101650.25;5079319;28;20060;-61
2022/04/11 08:39:05;;;;;;;11.13;4.10;;;;;;;14.39;38.68;101637.38;5074677;28;20025;-61
2022/04/11 08:41:33;;;;;;;7.20;4.20;;;;;;;14.53;37.33;101645.13;5073246;28;20301;-61
2022/04/11 08:44:01;;;;;;;5.80;3.30;;;;;;;14.68;37.64;101658.25;5074523;28;20041;-61
2022/04/11 08:46:29;;;;;;;7.85;3.67;;;;;;;14.78;36.35;101645.84;5084124;28;20027;-61
2022/04/11 08:48:54;;;;;;;7.38;3.30;;;;;;;14.97;36.34;101643.34;5090571;28;20041;-61
2022/04/11 08:51:19;;;;;;;5.55;3.40;;;;;;;15.07;36.12;101648.81;5092832;28;20373;-61
2022/04/11 08:53:45;;;;;;;8.02;3.80;;;;;;;15.13;36.05;101652.78;5090740;28;20039;-61
2022/04/11 08:56:10;;;;;;;7.00;3.47;;;;;;;15.15;35.25;101638.31;5092740;28;20049;-61
2022/04/11 08:58:36;;;;;;;6.70;3.00;;;;;;;15.11;34.84;101646.72;5093167;28;20081;-61
2022/04/11 09:01:01;;;;;;;7.50;3.22;;;;;;;15.05;34.40;101649.88;5092483;28;20024;-61
2022/04/11 09:03:27;;;;;;;5.78;2.92;;;;;;;15.11;35.07;101658.25;5091757;28;20028;-61
2022/04/11 09:06:02;;;;;;;6.85;2.85;;;;;;;15.20;35.33;101643.25;5092534;28;20032;-61
2022/04/11 09:08:50;;;;;;;6.13;2.70;;;;;;;15.34;35.13;101642.97;5090676;28;20031;-61
2022/04/11 09:11:31;;;;;;;6.03;2.83;;;;;;;15.60;35.12;101636.38;5089747;28;20028;-61
2022/04/11 09:13:58;;;;;;;4.57;2.70;;;;;;;15.74;32.64;101644.09;5091910;28;20043;-61
2022/04/11 09:16:24;;;;;;;7.35;2.80;;;;;;;15.92;33.32;101636.31;5092305;28;20377;-61
2022/04/11 09:18:52;;;;;;;8.05;2.95;;;;;;;16.08;33.25;101643.84;5086044;28;20081;-61
2022/04/11 09:21:19;;;;;;;4.53;3.13;;;;;;;16.01;32.62;101624.78;5092502;28;20026;-61
2022/04/11 09:23:45;;;;;;;4.18;2.65;;;;;;;16.17;33.34;101623.44;5091936;28;20032;-61
2022/04/11 09:26:16;;;;;;;4.72;2.78;;;;;;;16.31;34.07;101611.50;5085989;28;20044;-61
2022/04/11 09:28:41;;;;;;;6.68;2.50;;;;;;;16.50;32.66;101608.03;5092186;28;20028;-61
2022/04/11 09:31:06;;;;;;;7.35;2.90;;;;;;;16.72;31.42;101613.16;5092409;28;20363;-61
2022/04/11 09:33:39;;;;;;;3.93;2.40;;;;;;;17.01;32.30;101601.63;5091628;28;20107;-61
2022/04/11 09:36:04;;;;;;;5.78;2.58;;;;;;;17.06;30.90;101610.09;5093713;28;20657;-61
2022/04/11 09:38:37;;;;;;;4.97;2.55;;;;;;;17.22;30.55;101604.16;5092357;28;20070;-61
2022/04/11 09:41:03;;;;;;;4.75;2.50;;;;;;;17.42;30.36;101598.75;5072715;28;20482;-61
2022/04/11 09:43:30;;;;;;;7.90;3.00;;;;;;;17.35;29.40;101596.66;5080987;28;20114;-61
2022/04/11 09:45:57;;;;;;;6.85;3.08;;;;;;;17.33;29.76;101587.88;5089988;28;20039;-61
2022/04/11 09:48:26;;;;;;;4.03;2.22;;;;;;;17.34;28.98;101592.28;5078099;28;20032;-61
2022/04/11 09:50:53;;;;;;;4.88;2.63;;;;;;;17.50;30.26;101598.88;5091351;28;20472;-61
2022/04/11 09:53:21;;;;;;;4.05;2.40;;;;;;;17.61;29.37;101579.09;5092276;28;20039;-61
2022/04/11 09:55:50;;;;;;;8.80;2.83;;;;;;;17.69;28.89;101577.34;5086677;28;20120;-61
2022/04/11 09:58:16;;;;;;;;;;;;;;;17.86;31.84;101582.94;5073852;28;20067;-61
2022/04/11 10:00:42;;;;;;;3.40;2.20;;;;;;;17.51;28.75;101577.25;5073563;28;19915;-61
2022/04/11 10:03:08;;;;;;;3.97;2.28;;;;;;;17.64;28.57;101570.72;5073379;28;20037;-61
2022/04/11 10:05:35;;;;;;;4.88;2.70;;;;;;;17.42;27.78;101580.81;5072955;28;20493;-61
2022/04/11 10:08:02;;;;;;;4.47;2.20;;;;;;;17.26;28.85;101581.41;5073268;28;20043;-61
2022/04/11 10:10:28;;;;;;;4.65;2.13;;;;;;;17.35;27.54;101567.13;5073665;28;20036;-61
2022/04/11 10:12:55;;;;;;;4.32;2.30;;;;;;;17.30;27.59;101576.59;5072640;28;20473;-61
2022/04/11 10:15:21;;;;;;;5.55;2.47;;;;;;;17.31;28.25;101563.03;5073122;28;20259;-61
2022/04/11 10:17:48;;;;;;;6.43;2.63;;;;;;;17.53;27.81;101569.88;5073209;28;20163;-61
2022/04/11 10:20:23;;;;;;;5.40;2.88;;;;;;;17.50;29.12;101569.34;5078973;28;20027;-60
2022/04/11 10:22:56;;;;;;;9.27;2.80;;;;;;;17.52;29.35;101568.22;5087489;28;20044;-61
2022/04/11 10:25:21;;;;;;;4.85;2.30;;;;;;;17.66;27.64;101564.22;5083908;28;20039;-61
2022/04/11 10:27:47;;;;;;;6.53;2.72;;;;;;;17.83;27.98;101572.50;5065141;28;20044;-61
2022/04/11 10:30:29;;;;;;;5.55;2.65;;;;;;;18.07;29.49;101555.88;5087435;28;20061;-62
2022/04/11 10:32:55;;;;;;;5.13;3.08;;;;;;;17.95;27.95;101552.53;5092406;28;20079;-61
2022/04/11 10:35:53;;;;;;;4.53;2.78;;;;;;;17.93;30.21;101565.28;5072059;28;20128;-61
2022/04/11 10:38:20;;;;;;;5.47;2.70;;;;;;;17.90;28.83;101550.31;5027129;28;20402;-61
2022/04/11 10:40:47;;;;;;;5.72;3.00;;;;;;;18.01;29.10;101559.16;5072285;28;20032;-61
2022/04/11 10:43:15;;;;;;;4.43;3.00;;;;;;;17.82;27.93;101562.72;5072504;28;20098;-61
2022/04/11 10:45:43;;;;;;;8.50;2.80;;;;;;;17.80;28.70;101552.13;5072392;28;20056;-61
2022/04/11 10:48:10;;;;;;;9.40;3.00;;;;;;;17.97;28.15;101547.00;5080443;28;20036;-61
2022/04/11 10:50:45;;;;;;;7.30;2.70;;;;;;;18.08;29.11;101546.81;5091537;28;20025;-61
2022/04/11 10:53:17;;;;;;;4.18;2.80;;;;;;;18.17;28.29;101548.59;5091660;28;20024;-60
2022/04/11 10:56:08;;;;;;;4.90;2.90;;;;;;;18.38;29.07;101531.34;5093289;28;20035;-61
2022/04/11 10:58:48;;;;;;;7.32;3.08;;;;;;;18.49;28.45;101531.13;5079487;28;20059;-61
2022/04/11 11:01:15;;;;;;;6.20;3.67;;;;;;;18.57;26.97;101522.28;5076888;28;20037;-61
2022/04/11 11:03:57;;;;;;;4.82;3.00;;;;;;;18.73;29.06;101511.66;5058366;28;20029;-61
2022/04/11 11:06:23;;;;;;;4.57;3.00;;;;;;;18.85;27.54;101507.78;5076782;28;20035;-60
2022/04/11 11:08:48;;;;;;;7.68;3.10;;;;;;;18.84;27.74;101502.56;5076047;28;20040;-60
2022/04/11 11:11:25;;;;;;;7.35;3.40;;;;;;;18.88;27.82;101501.22;5075952;28;20035;-60
2022/04/11 11:13:52;;;;;;;6.32;2.88;;;;;;;18.52;27.02;101506.63;5092540;28;20078;-60
2022/04/11 11:16:20;;;;;;;6.93;3.17;;;;;;;18.45;28.07;101501.00;5092365;28;20031;-60
2022/04/11 11:18:45;;;;;;;5.10;3.10;;;;;;;18.41;27.74;101496.91;5095035;28;20470;-60